Terminal Aerodrome Forecast
Issued by NWS Charleston, WV

Current Version | Previous Version | Text Only | Print | Product List | Glossary Off
Versions: 1 2 3 4 5 6 7 8 9 10 11 12 13 14 15 16 17 18 19 20 21 22 23 24 25 26

000
FTUS41 KRLX 290834 AAA
TAFHTS
TAF AMD
KHTS 290834Z 2909/3006 00000KT 6SM BR BKN100
     FM291500 00000KT P6SM SCT035
     FM291800 21006KT P6SM VCTS BKN035CB
     FM300200 VRB03KT 6SM BR SCT040 BKN080=

USA.gov is the U.S. government's official web portal to all federal, state and local government web resources and services.